Time;durP1;ratioP1;P1;durP2;ratioP2;P2;SDS_P1;SDS_P2;PMS_P1;PMS_P2;Temp;Humidity;BMP_temperature;BMP_pressure;BME280_temperature;BME280_humidity;BME280_pressure;Samples;Min_cycle;Max_cycle;Signal;HPM_P1;HPM_P2
2023/09/19 00:00:19;;;;;;;;;;;14.60;99.90;;;14.65;100.00;99221.94;4974268;28;20400;-84
2023/09/19 00:02:57;;;;;;;;;;;14.50;99.90;;;14.67;100.00;99230.72;4967785;28;19922;-84
2023/09/19 00:05:24;;;;;;;;;;;14.50;99.90;;;14.70;100.00;99228.50;4956112;28;20358;-83
2023/09/19 00:07:59;;;;;;;;;;;14.50;99.90;;;14.74;100.00;99229.66;4977063;28;19906;-83
2023/09/19 00:10:26;;;;;;;;;;;14.50;99.90;;;14.81;100.00;99239.22;4958176;28;19977;-82
2023/09/19 00:12:55;;;;;;;;;;;14.60;99.90;;;14.78;100.00;99225.25;4971171;28;19918;-83
2023/09/19 00:15:22;;;;;;;;;;;14.60;99.90;;;14.81;100.00;99235.66;4971952;28;19918;-82
2023/09/19 00:17:48;;;;;;;;;;;14.70;99.90;;;14.91;100.00;99254.03;4971887;28;19924;-81
2023/09/19 00:20:17;;;;;;;;;;;14.70;99.90;;;15.01;100.00;99292.41;4972363;28;20288;-82
2023/09/19 00:22:43;;;;;;;;;;;14.80;99.90;;;15.06;100.00;99335.53;4955226;28;19964;-82
2023/09/19 00:25:12;;;;;;;;;;;14.80;99.90;;;15.01;100.00;99355.59;4971523;28;19953;-82
2023/09/19 00:27:42;;;;;;;;;;;14.80;99.90;;;15.03;100.00;99367.13;4946356;28;19929;-82
2023/09/19 00:30:21;;;;;;;;;;;14.80;99.90;;;14.95;100.00;99379.47;4951867;29;19930;-82
2023/09/19 00:32:47;;;;;;;;;;;14.80;99.90;;;14.93;100.00;99375.38;4972010;28;19914;-85
2023/09/19 00:35:15;;;;;;;;;;;14.80;99.90;;;14.91;100.00;99378.38;4971922;28;19957;-83
2023/09/19 00:37:41;;;;;;;;;;;14.90;99.90;;;14.87;100.00;99366.31;4972709;28;19945;-82
2023/09/19 00:40:15;;;;;;;;;;;14.80;99.90;;;14.91;100.00;99370.16;4971697;28;19960;-82
2023/09/19 00:42:43;;;;;;;;;;;14.80;99.90;;;14.89;100.00;99358.63;4954984;28;20021;-82
2023/09/19 00:45:13;;;;;;;;;;;14.80;99.90;;;14.93;100.00;99367.16;4940459;28;19941;-81
2023/09/19 00:47:51;;;;;;;;;;;14.80;99.90;;;14.97;100.00;99362.75;4972138;28;19924;-81
2023/09/19 00:50:19;;;;;;;;;;;14.80;99.90;;;14.99;100.00;99368.78;4972366;28;20358;-82
2023/09/19 00:52:46;;;;;;;;;;;14.80;99.90;;;14.99;100.00;99377.00;4971772;28;19976;-82
2023/09/19 00:55:14;;;;;;;;;;;14.80;99.90;;;15.00;100.00;99381.41;4972344;28;19918;-84
2023/09/19 00:57:40;;;;;;;;;;;14.80;99.90;;;15.01;100.00;99399.53;4971392;28;19976;-82
2023/09/19 01:00:11;;;;;;;;;;;14.80;99.90;;;15.07;100.00;99420.38;4954161;28;19922;-82
2023/09/19 01:02:37;;;;;;;;;;;14.80;99.90;;;15.09;100.00;99448.38;4971662;28;19929;-84
2023/09/19 01:05:04;;;;;;;;;;;14.90;99.90;;;15.16;100.00;99466.53;4936598;28;19925;-82
2023/09/19 01:07:35;;;;;;;;;;;14.90;99.90;;;15.19;100.00;99498.94;4970351;28;19950;-82
2023/09/19 01:10:05;;;;;;;;;;;14.90;99.90;;;15.14;100.00;99516.25;4971865;28;19928;-82
2023/09/19 01:12:53;;;;;;;;;;;14.90;99.90;;;15.10;100.00;99535.19;4971238;28;19925;-82
2023/09/19 01:15:43;;;;;;;;;;;14.90;99.90;;;15.13;100.00;99552.25;4967146;28;19918;-82
2023/09/19 01:18:33;;;;;;;;;;;14.90;99.90;;;15.05;100.00;99535.19;4967458;28;19925;-82
2023/09/19 01:21:16;;;;;;;;;;;14.90;99.90;;;15.14;100.00;99562.13;4922482;28;20053;-85
2023/09/19 01:24:10;;;;;;;;;;;14.90;99.90;;;15.11;100.00;99566.22;4969094;28;20350;-83
2023/09/19 01:26:44;;;;;;;;;;;14.90;99.90;;;15.21;100.00;99582.72;4972780;28;19918;-83
2023/09/19 01:29:43;;;;;;;;;;;15.00;99.90;;;15.26;100.00;99589.34;4975705;28;20004;-81
2023/09/19 01:32:14;;;;;;;;;;;15.10;99.90;;;15.28;100.00;99598.13;4969215;28;19918;-84
2023/09/19 01:34:50;;;;;;;;;;;15.10;99.90;;;15.32;100.00;99605.53;4976475;28;19925;-88
2023/09/19 01:37:20;;;;;;;;;;;15.20;99.90;;;15.38;100.00;99629.19;4943703;28;20330;-82
2023/09/19 01:40:08;;;;;;;;;;;15.30;99.90;;;15.50;100.00;99650.06;4977118;28;19914;-85
2023/09/19 01:42:43;;;;;;;;;;;15.40;99.90;;;15.59;100.00;99686.88;4956871;28;19957;-85
2023/09/19 01:45:24;;;;;;;;;;;15.40;99.90;;;15.59;100.00;99694.34;4945508;29;19918;-87
2023/09/19 01:47:55;;;;;;;;;;;15.50;99.90;;;15.66;100.00;99703.97;4988248;28;19942;-86
2023/09/19 01:50:36;;;;;;;;;;;15.50;99.90;;;15.70;100.00;99708.91;4993394;28;19944;-86
2023/09/19 01:53:09;;;;;;;;;;;15.50;99.90;;;15.70;100.00;99722.66;4972818;28;19938;-85
2023/09/19 01:55:40;;;;;;;;;;;15.60;99.90;;;15.72;100.00;99732.25;4990388;28;19992;-87
2023/09/19 01:58:09;;;;;;;;;;;15.60;99.90;;;15.77;100.00;99735.00;4948984;28;19919;-86
2023/09/19 02:00:37;;;;;;;;;;;15.60;99.90;;;15.77;100.00;99736.94;4978190;28;19917;-86
2023/09/19 02:03:04;;;;;;;;;;;15.60;99.90;;;15.77;100.00;99729.50;4977671;28;20008;-87
2023/09/19 02:05:30;;;;;;;;;;;15.70;99.90;;;15.84;100.00;99734.75;4968476;28;20377;-87
2023/09/19 02:07:56;;;;;;;;;;;15.70;99.90;;;15.89;100.00;99750.47;4977005;28;19922;-85
2023/09/19 02:10:23;;;;;;;;;;;15.80;99.90;;;15.97;100.00;99769.16;4975663;28;20025;-88
2023/09/19 02:12:50;;;;;;;;;;;15.90;99.90;;;16.01;100.00;99769.44;4974183;28;19922;-87
2023/09/19 02:15:16;;;;;;;;;;;15.90;99.90;;;16.04;100.00;99782.66;4950356;28;19925;-84
2023/09/19 02:17:43;;;;;;;;;;;15.90;99.90;;;15.99;100.00;99774.41;4973628;28;19918;-86
2023/09/19 02:20:14;;;;;;;;;;;15.80;99.90;;;15.89;100.00;99777.97;4929460;28;20038;-86
2023/09/19 02:22:41;;;;;;;;;;;15.80;99.90;;;15.80;100.00;99766.66;4957348;28;20077;-88
2023/09/19 02:25:08;;;;;;;;;;;15.70;99.90;;;15.79;100.00;99771.34;4974583;28;19925;-85
2023/09/19 02:27:36;;;;;;;;;;;15.60;99.90;;;15.77;100.00;99768.00;4975784;28;20016;-85
2023/09/19 02:30:02;;;;;;;;;;;15.60;99.90;;;15.71;100.00;99762.81;4973118;28;20012;-87
2023/09/19 02:32:30;;;;;;;;;;;15.60;99.90;;;15.71;100.00;99757.31;4974470;28;19953;-84
2023/09/19 02:34:55;;;;;;;;;;;15.60;99.90;;;15.82;100.00;99786.44;4967752;28;19921;-86
2023/09/19 02:37:22;;;;;;;;;;;15.60;99.90;;;15.87;100.00;99793.88;4973970;28;20394;-86
2023/09/19 02:39:48;;;;;;;;;;;15.60;99.90;;;15.87;100.00;99800.19;4952509;28;19925;-86
2023/09/19 02:42:14;;;;;;;;;;;15.70;99.90;;;15.81;100.00;99796.63;4946219;28;20235;-86
2023/09/19 02:44:41;;;;;;;;;;;15.70;99.90;;;15.63;100.00;99792.44;4974010;28;19946;-84
2023/09/19 02:47:06;;;;;;;;;;;15.70;99.90;;;15.73;100.00;99808.16;4974534;28;19981;-83
2023/09/19 02:49:32;;;;;;;;;;;15.70;99.90;;;15.82;100.00;99822.19;4956639;28;19926;-86
2023/09/19 02:51:59;;;;;;;;;;;15.70;99.90;;;15.72;100.00;99822.19;4967061;28;19933;-84
2023/09/19 02:54:25;;;;;;;;;;;15.60;99.90;;;15.65;100.00;99826.03;4954662;28;19926;-85
2023/09/19 02:56:53;;;;;;;;;;;15.60;99.90;;;15.60;100.00;99825.19;4954273;28;19949;-86
2023/09/19 02:59:19;;;;;;;;;;;15.50;99.90;;;15.49;100.00;99821.56;4937061;29;19919;-87
2023/09/19 03:01:47;;;;;;;;;;;15.50;99.90;;;15.50;100.00;99839.72;4952697;29;20386;-85
2023/09/19 03:04:17;;;;;;;;;;;15.40;99.90;;;15.43;100.00;99834.47;4944729;29;20356;-85
2023/09/19 03:06:44;;;;;;;;;;;15.30;99.90;;;15.31;100.00;99831.13;4954532;28;19918;-85
2023/09/19 03:09:11;;;;;;;;;;;15.30;99.90;;;15.28;100.00;99837.97;4954276;28;20012;-84
2023/09/19 03:11:37;;;;;;;;;;;15.30;99.90;;;15.20;100.00;99831.06;4944142;29;19918;-85
2023/09/19 03:14:04;;;;;;;;;;;15.20;99.90;;;15.26;100.00;99845.66;4954213;29;20000;-86
2023/09/19 03:16:29;;;;;;;;;;;15.20;99.90;;;15.26;100.00;99853.91;4951745;29;19959;-85
2023/09/19 03:18:59;;;;;;;;;;;15.30;99.90;;;15.34;100.00;99864.38;4952458;29;20013;-85
2023/09/19 03:21:25;;;;;;;;;;;15.20;99.90;;;15.25;100.00;99868.75;4972678;28;19924;-83
2023/09/19 03:23:51;;;;;;;;;;;15.30;99.90;;;15.32;100.00;99885.81;4936181;29;19918;-86
2023/09/19 03:26:17;;;;;;;;;;;15.30;99.90;;;15.32;100.00;99877.56;4953363;29;19930;-86
2023/09/19 03:28:45;;;;;;;;;;;15.30;99.90;;;15.31;100.00;99902.56;4952704;29;20362;-85
2023/09/19 03:31:11;;;;;;;;;;;15.30;99.90;;;15.34;100.00;99888.28;4940234;28;20304;-85
2023/09/19 03:33:37;;;;;;;;;;;15.40;99.90;;;15.36;100.00;99897.91;4967434;28;20073;-85
2023/09/19 03:36:04;;;;;;;;;;;15.30;99.90;;;15.30;100.00;99890.75;4952390;29;20259;-84
2023/09/19 03:38:33;;;;;;;;;;;15.30;99.90;;;15.28;100.00;99892.13;4952697;29;19957;-85
2023/09/19 03:40:59;;;;;;;;;;;15.30;99.90;;;15.16;100.00;99889.59;4952392;29;19918;-86
2023/09/19 03:43:25;;;;;;;;;;;15.20;99.90;;;15.14;100.00;99903.56;4947714;29;19925;-85
2023/09/19 03:45:51;;;;;;;;;;;15.20;99.90;;;15.06;100.00;99893.91;4941146;29;19919;-87
2023/09/19 03:48:18;;;;;;;;;;;15.10;99.90;;;15.02;100.00;99898.28;4931409;29;19923;-86
2023/09/19 03:50:46;;;;;;;;;;;15.00;99.90;;;14.99;100.00;99887.81;4922143;29;19919;-85
2023/09/19 03:53:12;;;;;;;;;;;15.00;99.90;;;14.90;100.00;99878.44;4928770;28;19973;-85
2023/09/19 03:55:38;;;;;;;;;;;15.00;99.90;;;14.89;100.00;99880.34;4925599;29;19969;-85
2023/09/19 03:58:05;;;;;;;;;;;14.90;99.90;;;14.89;100.00;99887.78;4961564;28;19925;-84
2023/09/19 04:00:31;;;;;;;;;;;14.90;99.90;;;14.90;100.00;99886.69;4926801;28;19913;-84
2023/09/19 04:02:58;;;;;;;;;;;14.90;99.90;;;14.84;100.00;99879.47;4961601;28;19970;-86
2023/09/19 04:05:24;;;;;;;;;;;14.80;99.90;;;14.77;100.00;99888.78;4925291;29;19954;-86
2023/09/19 04:07:51;;;;;;;;;;;14.80;99.90;;;14.75;100.00;99879.97;4952651;28;19919;-84
2023/09/19 04:10:17;;;;;;;;;;;14.70;99.90;;;14.73;100.00;99882.16;4927162;29;19925;-85
2023/09/19 04:12:53;;;;;;;;;;;14.70;99.90;;;14.79;100.00;99885.78;4952065;29;19915;-86
2023/09/19 04:15:22;;;;;;;;;;;14.70;99.90;;;14.71;100.00;99881.59;4924302;29;19919;-87
2023/09/19 04:17:57;;;;;;;;;;;14.70;99.90;;;14.82;100.00;99877.81;4944773;29;20393;-86
2023/09/19 04:20:23;;;;;;;;;;;14.80;99.90;;;14.84;100.00;99882.22;4920490;29;19919;-87
2023/09/19 04:22:49;;;;;;;;;;;14.80;99.90;;;14.86;100.00;99891.84;4934404;29;19966;-86
2023/09/19 04:25:16;;;;;;;;;;;14.90;99.90;;;14.91;100.00;99882.84;4930407;29;19922;-87
2023/09/19 04:27:44;;;;;;;;;;;14.90;99.90;;;14.86;100.00;99883.63;4933594;28;19918;-86
2023/09/19 04:30:11;;;;;;;;;;;14.90;99.90;;;14.89;100.00;99896.00;4956108;28;19991;-87
2023/09/19 04:32:39;;;;;;;;;;;14.90;99.90;;;14.82;100.00;99890.72;4926615;29;20298;-86
2023/09/19 04:35:10;;;;;;;;;;;14.90;99.90;;;14.81;100.00;99884.41;4950361;29;19922;-87
2023/09/19 04:37:40;;;;;;;;;;;14.70;99.90;;;14.74;100.00;99878.31;4954603;28;19921;-83
2023/09/19 04:40:12;;;;;;;;;;;14.70;99.90;;;14.66;100.00;99887.84;4949792;29;19918;-85
2023/09/19 04:42:42;;;;;;;;;;;14.70;99.90;;;14.70;100.00;99895.53;4952572;28;19918;-86
2023/09/19 04:45:10;;;;;;;;;;;14.70;99.90;;;14.70;100.00;99898.28;4963103;28;19922;-85
2023/09/19 04:47:38;;;;;;;;;;;14.60;99.90;;;14.69;100.00;99902.97;4953194;29;19923;-84
2023/09/19 04:50:11;;;;;;;;;;;14.50;99.90;;;14.65;100.00;99902.66;4952461;29;20369;-85
2023/09/19 04:52:42;;;;;;;;;;;14.50;99.90;;;14.59;100.00;99892.72;4963687;28;19918;-84
2023/09/19 04:55:10;;;;;;;;;;;14.50;99.90;;;14.50;100.00;99872.34;4971682;28;19922;-84
2023/09/19 04:57:36;;;;;;;;;;;14.40;99.90;;;14.46;100.00;99887.69;4970649;28;19925;-85
2023/09/19 05:00:12;;;;;;;;;;;14.40;99.90;;;14.39;100.00;99880.47;4973690;28;19965;-84
2023/09/19 05:02:38;;;;;;;;;;;14.40;99.90;;;14.41;100.00;99880.22;4976300;28;19929;-87
2023/09/19 05:05:06;;;;;;;;;;;14.30;99.90;;;14.37;100.00;99881.84;4958022;28;19941;-84
2023/09/19 05:07:34;;;;;;;;;;;14.30;99.90;;;14.36;100.00;99885.69;4976865;28;20390;-86
2023/09/19 05:10:00;;;;;;;;;;;14.30;99.90;;;14.32;100.00;99870.81;4975279;28;19972;-86
2023/09/19 05:12:28;;;;;;;;;;;14.30;99.90;;;14.36;100.00;99885.69;4976326;28;20502;-86
2023/09/19 05:14:54;;;;;;;;;;;14.30;99.90;;;14.39;100.00;99896.13;4976789;28;19976;-87
2023/09/19 05:17:19;;;;;;;;;;;14.30;99.90;;;14.36;100.00;99896.66;4959490;28;19921;-86
2023/09/19 05:19:45;;;;;;;;;;;14.30;99.90;;;14.33;100.00;99889.75;4957477;28;19926;-87
2023/09/19 05:22:12;;;;;;;;;;;14.20;99.90;;;14.28;100.00;99886.13;4963449;28;20366;-88
2023/09/19 05:24:38;;;;;;;;;;;14.30;99.90;;;14.33;100.00;99884.28;4979172;28;19926;-89
2023/09/19 05:27:04;;;;;;;;;;;14.30;99.90;;;14.37;100.00;99901.88;4977406;28;19976;-87
2023/09/19 05:29:30;;;;;;;;;;;14.40;99.90;;;14.39;100.00;99916.16;4958999;28;20429;-86
2023/09/19 05:31:55;;;;;;;;;;;14.40;99.90;;;14.48;100.00;99929.41;4976037;28;19994;-83
2023/09/19 05:34:21;;;;;;;;;;;14.40;99.90;;;14.53;100.00;99944.00;4975063;28;19938;-85
2023/09/19 05:36:48;;;;;;;;;;;14.50;99.90;;;14.57;100.00;99960.78;4975533;28;19918;-86
2023/09/19 05:39:14;;;;;;;;;;;14.50;99.90;;;14.62;100.00;99957.25;4942629;29;20009;-85
2023/09/19 05:41:40;;;;;;;;;;;14.60;99.90;;;14.68;100.00;99965.25;4955072;28;19918;-83
2023/09/19 05:44:06;;;;;;;;;;;14.60;99.90;;;14.64;100.00;99975.09;4975228;28;20413;-85
2023/09/19 05:46:32;;;;;;;;;;;14.60;99.90;;;14.59;100.00;99969.56;4974575;28;19964;-86
2023/09/19 05:48:58;;;;;;;;;;;14.60;99.90;;;14.62;100.00;99990.19;4975520;28;19970;-83
2023/09/19 05:51:25;;;;;;;;;;;14.60;99.90;;;14.66;100.00;99997.63;4974520;28;19922;-86
2023/09/19 05:53:50;;;;;;;;;;;14.60;99.90;;;14.62;100.00;99984.72;4974819;28;20432;-85
2023/09/19 05:56:18;;;;;;;;;;;14.60;99.90;;;14.59;100.00;100012.69;4968730;28;19918;-86
2023/09/19 05:58:44;;;;;;;;;;;14.50;99.90;;;14.52;100.00;100019.19;4975046;28;19926;-87
2023/09/19 06:01:10;;;;;;;;;;;14.50;99.90;;;14.50;100.00;100037.00;4941677;28;20374;-85
2023/09/19 06:03:35;;;;;;;;;;;14.50;99.90;;;14.58;100.00;100050.25;4958199;28;19917;-86
2023/09/19 06:06:02;;;;;;;;;;;14.60;99.90;;;14.64;100.00;100056.66;4972612;28;20008;-83
2023/09/19 06:08:28;;;;;;;;;;;14.60;99.90;;;14.64;100.00;100064.88;4968529;28;20346;-81
2023/09/19 06:10:54;;;;;;;;;;;14.70;99.90;;;14.76;100.00;100075.75;4945876;28;19919;-83
2023/09/19 06:13:20;;;;;;;;;;;14.70;99.90;;;14.71;100.00;100068.28;4974739;28;19970;-82
2023/09/19 06:15:47;;;;;;;;;;;14.70;99.90;;;14.71;100.00;100082.00;4957555;28;19949;-83
2023/09/19 06:18:19;;;;;;;;;;;14.80;99.90;;;14.73;100.00;100074.34;4973867;28;20417;-82
2023/09/19 06:20:50;;;;;;;;;;;14.80;99.90;;;14.77;100.00;100078.22;4969555;28;19926;-83
2023/09/19 06:23:17;;;;;;;;;;;14.80;99.90;;;14.89;100.00;100096.47;4969173;28;19958;-84
2023/09/19 06:25:43;;;;;;;;;;;14.90;99.90;;;14.96;100.00;100095.16;4974422;28;19934;-80
2023/09/19 06:28:12;;;;;;;;;;;14.90;99.90;;;14.95;100.00;100088.00;4973416;28;19926;-87
2023/09/19 06:30:40;;;;;;;;;;;15.00;99.90;;;14.94;100.00;100091.84;4976646;28;20012;-85
2023/09/19 06:33:06;;;;;;;;;;;15.00;99.90;;;14.94;100.00;100080.84;4974961;28;19922;-86
2023/09/19 06:35:33;;;;;;;;;;;15.00;99.90;;;14.98;100.00;100067.44;4977287;28;19980;-84
2023/09/19 06:38:02;;;;;;;;;;;15.10;99.90;;;15.14;100.00;100084.88;4973524;28;19918;-81
2023/09/19 06:40:30;;;;;;;;;;;15.10;99.90;;;15.23;100.00;100088.78;4971172;28;19921;-79
2023/09/19 06:42:57;;;;;;;;;;;15.20;99.90;;;15.31;100.00;100076.50;4957469;28;19918;-80
2023/09/19 06:45:22;;;;;;;;;;;15.30;99.90;;;15.38;100.00;100079.88;4984602;28;20301;-81
2023/09/19 06:47:50;;;;;;;;;;;15.30;99.90;;;15.47;100.00;100074.69;4974963;28;19917;-80
2023/09/19 06:50:19;;;;;;;;;;;15.40;99.90;;;15.54;100.00;100066.22;4976021;28;20045;-79
2023/09/19 06:52:47;;;;;;;;;;;15.50;99.90;;;15.42;100.00;100073.84;4954469;28;19917;-87
2023/09/19 06:55:16;;;;;;;;;;;15.50;99.90;;;15.49;100.00;100075.25;4979480;28;19918;-79
2023/09/19 06:57:43;;;;;;;;;;;15.60;99.90;;;15.58;100.00;100078.34;4982188;28;19914;-80
2023/09/19 07:00:15;;;;;;;;;;;15.60;99.90;;;15.66;100.00;100083.38;4989419;28;19929;-81
2023/09/19 07:02:56;;;;;;;;;;;15.70;99.90;;;15.82;100.00;100094.47;4995183;28;19912;-82
2023/09/19 07:05:22;;;;;;;;;;;15.70;99.90;;;15.78;100.00;100093.34;4991550;28;19961;-82
2023/09/19 07:07:47;;;;;;;;;;;15.80;99.90;;;15.80;100.00;100104.91;4952420;28;19933;-81
2023/09/19 07:10:14;;;;;;;;;;;15.80;99.90;;;15.95;100.00;100120.69;4988500;28;19981;-81
2023/09/19 07:12:41;;;;;;;;;;;15.90;99.90;;;15.92;100.00;100118.47;4976887;28;19922;-82
2023/09/19 07:15:06;;;;;;;;;;;16.00;99.90;;;15.93;100.00;100109.13;4956364;28;19918;-83
2023/09/19 07:17:33;;;;;;;;;;;16.00;99.90;;;15.94;100.00;100117.13;4969315;28;19932;-82
2023/09/19 07:19:59;;;;;;;;;;;16.00;99.90;;;16.07;100.00;100109.50;4955466;28;19936;-83
2023/09/19 07:22:28;;;;;;;;;;;16.10;99.90;;;16.28;100.00;100115.91;4973491;28;19940;-85
2023/09/19 07:24:54;;;;;;;;;;;16.20;99.90;;;16.11;100.00;100099.59;4973721;28;19928;-84
2023/09/19 07:27:20;;;;;;;;;;;16.20;99.90;;;16.33;100.00;100112.38;4973523;28;19926;-87
2023/09/19 07:29:45;;;;;;;;;;;16.30;99.90;;;16.46;100.00;100119.31;4972972;28;19922;-83
2023/09/19 07:32:11;;;;;;;;;;;16.40;99.90;;;16.59;100.00;100129.00;4972571;28;19934;-84
2023/09/19 07:34:40;;;;;;;;;;;16.60;99.90;;;16.51;100.00;100131.16;4973266;28;19922;-84
2023/09/19 07:37:06;;;;;;;;;;;16.60;99.90;;;16.60;100.00;100138.91;4945753;29;19925;-83
2023/09/19 07:39:32;;;;;;;;;;;16.60;99.90;;;16.55;100.00;100128.69;4971770;28;19918;-84
2023/09/19 07:41:59;;;;;;;;;;;16.70;99.90;;;16.62;100.00;100133.94;4972974;28;19926;-84
2023/09/19 07:44:25;;;;;;;;;;;16.70;99.90;;;16.67;100.00;100131.22;4972288;28;19926;-84
2023/09/19 07:46:52;;;;;;;;;;;16.80;99.90;;;16.64;100.00;100137.25;4972103;28;20448;-84
2023/09/19 07:49:17;;;;;;;;;;;16.80;99.90;;;16.65;100.00;100138.91;4970389;28;19926;-84
2023/09/19 07:51:46;;;;;;;;;;;16.80;99.90;;;16.78;100.00;100154.94;4972461;28;20429;-84
2023/09/19 07:54:12;;;;;;;;;;;16.90;99.90;;;16.73;100.00;100159.59;4972281;28;19926;-83
2023/09/19 07:56:38;;;;;;;;;;;16.90;99.90;;;17.04;100.00;100167.97;4970032;28;20041;-83
2023/09/19 07:59:04;;;;;;;;;;;17.10;99.90;;;17.05;100.00;100153.94;4972589;28;20043;-85
2023/09/19 08:01:30;;;;;;;;;;;17.20;99.90;;;17.10;100.00;100164.97;4952444;29;19949;-83
2023/09/19 08:03:55;;;;;;;;;;;17.20;99.90;;;17.01;100.00;100169.38;4971900;28;20374;-82
2023/09/19 08:06:21;;;;;;;;;;;17.20;99.90;;;16.81;100.00;100170.09;4971957;28;19925;-80
2023/09/19 08:08:49;;;;;;;;;;;17.00;99.90;;;16.78;100.00;100170.63;4972635;28;20437;-83
2023/09/19 08:11:21;;;;;;;;;;;17.00;99.90;;;16.88;100.00;100167.94;4976138;28;19924;-82
2023/09/19 08:13:48;;;;;;;;;;;17.10;99.90;;;17.17;100.00;100169.38;4972198;28;19929;-83
2023/09/19 08:16:15;;;;;;;;;;;17.20;99.90;;;16.95;100.00;100175.91;4972834;28;20017;-81
2023/09/19 08:18:41;;;;;;;;;;;17.20;99.90;;;16.96;100.00;100169.31;4972358;28;20010;-82
2023/09/19 08:21:10;;;;;;;;;;;17.10;99.90;;;17.29;100.00;100174.66;4972050;28;20110;-82
2023/09/19 08:23:38;;;;;;;;;;;17.20;99.90;;;17.38;100.00;100164.75;4971753;28;19979;-83
2023/09/19 08:26:07;;;;;;;;;;;17.40;99.90;;;17.35;100.00;100173.53;4972204;28;20342;-80
2023/09/19 08:28:36;;;;;;;;;;;17.50;99.90;;;17.50;100.00;100169.97;4972874;28;19930;-86
2023/09/19 08:31:06;;;;;;;;;;;17.50;99.90;;;17.73;100.00;100176.03;4972532;28;19925;-85
2023/09/19 08:33:33;;;;;;;;;;;17.70;99.90;;;17.67;100.00;100176.06;4971156;28;20385;-84
2023/09/19 08:35:59;;;;;;;;;;;17.80;99.90;;;17.65;100.00;100166.41;4971093;28;19922;-85
2023/09/19 08:38:29;;;;;;;;;;;17.90;99.90;;;18.02;100.00;100181.00;4972322;28;19980;-85
2023/09/19 08:40:59;;;;;;;;;;;;;;;18.11;100.00;100179.34;4972067;28;19918;-85
2023/09/19 08:43:28;;;;;;;;;;;;;;;18.17;100.00;100178.25;4971262;28;19949;-86
2023/09/19 08:46:02;;;;;;;;;;;;;;;18.00;100.00;100181.28;4953600;28;19918;-86
2023/09/19 08:48:29;;;;;;;;;;;;;;;18.16;100.00;100175.75;4966121;28;20265;-88
2023/09/19 08:51:10;;;;;;;;;;;;;;;18.31;100.00;100184.00;4971060;28;20006;-86
2023/09/19 08:53:39;;;;;;;;;;;;;;;18.33;100.00;100180.97;4971387;28;19973;-87
2023/09/19 08:56:08;;;;;;;;;;;;;;;18.52;100.00;100179.22;4954701;28;19964;-84
2023/09/19 08:58:40;;;;;;;;;;;;;;;18.25;100.00;100188.69;4971884;28;20281;-87
2023/09/19 09:01:07;;;;;;;;;;;;;;;18.26;100.00;100189.53;4972907;28;19941;-84
2023/09/19 09:03:34;;;;;;;;;;;;;;;18.44;100.00;100192.81;4972051;28;19918;-86
2023/09/19 09:06:01;;;;;;;;;;;;;;;18.31;100.00;100195.03;4972555;28;20370;-86
2023/09/19 09:08:28;;;;;;;;;;;;;;;18.81;100.00;100189.59;4973090;28;19941;-87
2023/09/19 09:10:55;;;;;;;;;;;;;;;19.23;100.00;100193.03;4972928;28;19959;-86
2023/09/19 09:13:22;;;;;;;;;;;;;;;19.05;100.00;100194.50;4974360;28;20434;-84
2023/09/19 09:15:48;;;;;;;;;;;;;;;18.82;100.00;100198.75;4974677;28;20017;-85
2023/09/19 09:18:14;;;;;;;;;;;;;;;18.67;100.00;100205.97;4974949;28;19926;-88
2023/09/19 09:20:41;;;;;;;;;;;;;;;18.80;100.00;100215.59;4974400;28;19917;-85
2023/09/19 09:23:08;;;;;;;;;;;;;;;19.06;100.00;100209.97;4975752;28;19979;-86
2023/09/19 09:25:47;;;;;;;;;;;;;;;19.10;100.00;100200.03;4991405;28;19913;-84
2023/09/19 09:28:19;;;;;;;;;;;;;;;19.35;100.00;100217.53;4969746;28;19945;-83
2023/09/19 09:30:46;;;;;;;;;;;;;;;19.41;100.00;100210.03;4955089;28;19918;-83
2023/09/19 09:33:13;;;;;;;;;;;;;;;19.44;100.00;100208.66;4972012;28;19944;-84
2023/09/19 09:35:52;;;;;;;;;;;;;;;19.15;100.00;100207.44;4972130;28;20493;-85
2023/09/19 09:38:25;;;;;;;;;;;;;;;19.00;100.00;100215.84;4968144;28;19922;-85
2023/09/19 09:41:27;;;;;;;;;;;;;;;19.47;100.00;100208.06;4969815;28;19918;-84
2023/09/19 09:43:46;;;;;;;;;;;;;;;19.41;100.00;100210.03;4962045;28;19988;-85
2023/09/19 09:51:57;;;;;;;;;;;;;;;19.74;100.00;100201.22;4974217;28;19962;-83
2023/09/19 09:54:23;;;;;;;;;;;;;;;19.49;100.00;100216.91;4974843;28;19937;-83
2023/09/19 09:56:59;;;;;;;;;;;;;;;19.56;100.00;100225.69;4975155;28;19925;-81
2023/09/19 09:59:46;;;;;;;;;;;;;;;19.78;100.00;100221.66;4974491;28;19965;-84
2023/09/19 10:02:13;;;;;;;;;;;;;;;20.18;100.00;100225.22;4968965;28;19972;-83
2023/09/19 10:04:51;;;;;;;;;;;;;;;20.90;96.45;100214.47;4974208;28;19922;-85
2023/09/19 10:07:35;;;;;;;;;;;;;;;21.42;92.19;100217.34;4973274;28;19964;-82
2023/09/19 10:12:50;;;;;;;;;;;;;;;20.90;89.61;100223.63;4973478;28;19925;-79
2023/09/19 10:15:17;;;;;;;;;;;;;;;21.39;91.16;100224.31;4972936;28;20377;-80
2023/09/19 10:17:44;;;;;;;;;;;;;;;21.05;89.51;100211.50;4973813;28;19925;-80
2023/09/19 10:20:24;;;;;;;;;;;;;;;21.41;86.99;100233.16;4973774;28;19961;-81
2023/09/19 10:22:57;;;;;;;;;;;;;;;21.40;87.17;100216.84;4971086;28;19918;-80
2023/09/19 10:25:25;;;;;;;;;;;;;;;21.72;83.44;100214.41;4972320;28;19956;-81
2023/09/19 10:27:53;;;;;;;;;;;;;;;21.27;88.98;100227.53;4973214;28;20287;-81
2023/09/19 10:30:20;;;;;;;;;;;;;;;21.34;84.79;100221.63;4973734;28;20279;-82
2023/09/19 10:32:48;;;;;;;;;;;;;;;21.21;86.06;100201.00;4956293;28;20406;-80
2023/09/19 10:35:14;;;;;;;;;;;;;;;21.39;86.33;100220.75;4974612;28;20016;-81
2023/09/19 10:37:43;;;;;;;;;;;;;;;21.26;85.36;100205.66;4956043;28;20283;-83
2023/09/19 10:40:11;;;;;;;;;;;;;;;21.49;85.79;100192.03;4972538;28;19921;-82
2023/09/19 10:42:38;;;;;;;;;;;;;;;21.25;85.36;100210.38;4955699;28;19918;-81
2023/09/19 10:45:08;;;;;;;;;;;;;;;21.12;88.60;100217.50;4973257;28;20047;-80
2023/09/19 10:47:37;;;;;;;;;;;;;;;;;;4969263;28;19943;-81
2023/09/19 10:50:05;;;;;;;;;;;;;;;21.42;84.89;100215.41;4973516;28;20466;-79
2023/09/19 10:52:34;;;;;;;;;;;;;;;22.59;78.84;100211.25;4970465;28;19958;-80
2023/09/19 10:55:01;;;;;;;;;;;;;;;23.42;72.26;100204.72;4958023;28;20362;-82
2023/09/19 10:57:31;;;;;;;;;;;;;;;23.26;73.49;100213.44;4953034;28;20286;-79
2023/09/19 11:00:07;;;;;;;;;;;;;;;22.96;68.25;100207.41;4951424;29;19954;-79
2023/09/19 11:02:33;;;;;;;;;;;;;;;22.71;69.92;100211.53;4953479;29;19937;-81
2023/09/19 11:05:10;;;;;;;;;;;;;;;22.54;69.93;100206.59;4953663;29;19918;-79
2023/09/19 11:07:57;;;;;;;;;;;;;;;22.31;70.27;100213.97;4952849;29;19929;-80
2023/09/19 11:10:41;;;;;;;;;;;;;;;21.97;73.13;100213.97;4953527;29;19919;-82
2023/09/19 11:13:30;;;;;;;;;;;;;;;22.44;72.44;100226.22;4953427;29;20012;-80
2023/09/19 11:15:57;;;;;;;;;;;;;;;22.47;71.36;100214.53;4954278;29;19923;-80
2023/09/19 11:18:41;;;;;;;;;;;;;;;22.21;73.31;100209.41;4953489;29;19918;-82
2023/09/19 11:21:31;;;;;;;;;;;;;;;21.92;69.89;100197.41;4949596;29;19914;-80
2023/09/19 11:24:09;;;;;;;;;;;;;;;23.12;67.44;100195.91;4950772;29;19918;-79
2023/09/19 11:26:48;;;;;;;;;;;;;;;23.18;67.08;100210.53;4952923;29;19997;-80
2023/09/19 11:29:31;;;;;;;;;;;;;;;23.12;67.92;100216.22;4953826;29;20409;-80
2023/09/19 11:31:59;;;;;;;;;;;;;;;22.61;64.13;100198.66;4936343;29;19919;-80
2023/09/19 11:34:41;;;;;;;;;;;;;;;22.77;66.23;100206.69;4953146;29;19921;-80
2023/09/19 11:37:11;;;;;;;;;;;;;;;23.68;61.70;100192.97;4952386;29;19922;-81
2023/09/19 11:39:38;;;;;;;;;;;;;;;23.11;60.14;100189.53;4952551;28;20282;-81
2023/09/19 11:42:23;;;;;;;;;;;;;;;22.58;62.09;100198.47;4951922;29;20342;-80
2023/09/19 11:44:52;;;;;;;;;;;;;;;23.01;59.28;100189.75;4920135;29;19989;-81